sensor_id;sensor_type;location;lat;lon;timestamp;P1;durP1;ratioP1;P2;durP2;ratioP2
84997;SDS011;75314;48.120;11.534;2024-03-17T00:00:24;4.57;;;2.80;;
84997;SDS011;75314;48.120;11.534;2024-03-17T00:02:49;2.60;;;2.40;;
84997;SDS011;75314;48.120;11.534;2024-03-17T00:05:14;4.50;;;2.90;;
84997;SDS011;75314;48.120;11.534;2024-03-17T00:07:40;2.50;;;2.20;;
84997;SDS011;75314;48.120;11.534;2024-03-17T00:10:05;3.10;;;2.27;;
84997;SDS011;75314;48.120;11.534;2024-03-17T00:12:31;3.10;;;2.77;;
84997;SDS011;75314;48.120;11.534;2024-03-17T00:14:56;3.90;;;2.77;;
84997;SDS011;75314;48.120;11.534;2024-03-17T00:17:21;3.40;;;2.60;;
84997;SDS011;75314;48.120;11.534;2024-03-17T00:19:46;3.17;;;2.77;;
84997;SDS011;75314;48.120;11.534;2024-03-17T00:22:12;3.70;;;2.73;;
84997;SDS011;75314;48.120;11.534;2024-03-17T00:24:37;3.23;;;2.73;;
84997;SDS011;75314;48.120;11.534;2024-03-17T00:27:02;3.27;;;2.53;;
84997;SDS011;75314;48.120;11.534;2024-03-17T00:29:28;2.90;;;2.40;;
84997;SDS011;75314;48.120;11.534;2024-03-17T00:31:53;3.90;;;2.40;;
84997;SDS011;75314;48.120;11.534;2024-03-17T00:34:18;2.90;;;2.50;;
84997;SDS011;75314;48.120;11.534;2024-03-17T00:36:44;3.50;;;2.77;;
84997;SDS011;75314;48.120;11.534;2024-03-17T00:39:10;3.13;;;2.67;;
84997;SDS011;75314;48.120;11.534;2024-03-17T00:41:35;3.20;;;2.80;;
84997;SDS011;75314;48.120;11.534;2024-03-17T00:44:00;3.67;;;2.80;;
84997;SDS011;75314;48.120;11.534;2024-03-17T00:46:25;3.07;;;2.77;;
84997;SDS011;75314;48.120;11.534;2024-03-17T00:48:50;4.33;;;3.07;;
84997;SDS011;75314;48.120;11.534;2024-03-17T00:51:16;3.00;;;2.60;;
84997;SDS011;75314;48.120;11.534;2024-03-17T00:53:41;3.00;;;2.70;;
84997;SDS011;75314;48.120;11.534;2024-03-17T00:56:07;3.87;;;2.90;;
84997;SDS011;75314;48.120;11.534;2024-03-17T00:58:32;3.70;;;2.87;;
84997;SDS011;75314;48.120;11.534;2024-03-17T01:00:57;2.87;;;2.50;;
84997;SDS011;75314;48.120;11.534;2024-03-17T01:03:22;3.20;;;2.47;;
84997;SDS011;75314;48.120;11.534;2024-03-17T01:05:48;2.63;;;2.23;;
84997;SDS011;75314;48.120;11.534;2024-03-17T01:08:13;3.10;;;2.33;;
84997;SDS011;75314;48.120;11.534;2024-03-17T01:10:39;3.00;;;2.70;;
84997;SDS011;75314;48.120;11.534;2024-03-17T01:13:06;4.30;;;2.93;;
84997;SDS011;75314;48.120;11.534;2024-03-17T01:15:31;4.27;;;2.40;;
84997;SDS011;75314;48.120;11.534;2024-03-17T01:17:56;2.43;;;2.20;;
84997;SDS011;75314;48.120;11.534;2024-03-17T01:20:22;2.87;;;2.63;;
84997;SDS011;75314;48.120;11.534;2024-03-17T01:22:47;3.03;;;2.60;;
84997;SDS011;75314;48.120;11.534;2024-03-17T01:25:12;3.77;;;2.60;;
84997;SDS011;75314;48.120;11.534;2024-03-17T01:27:37;2.73;;;2.50;;
84997;SDS011;75314;48.120;11.534;2024-03-17T01:30:02;3.23;;;2.93;;
84997;SDS011;75314;48.120;11.534;2024-03-17T01:32:28;3.90;;;2.77;;
84997;SDS011;75314;48.120;11.534;2024-03-17T01:34:53;3.20;;;2.90;;
84997;SDS011;75314;48.120;11.534;2024-03-17T01:37:18;4.37;;;2.40;;
84997;SDS011;75314;48.120;11.534;2024-03-17T01:39:43;3.43;;;2.93;;
84997;SDS011;75314;48.120;11.534;2024-03-17T01:42:09;2.90;;;2.60;;
84997;SDS011;75314;48.120;11.534;2024-03-17T01:44:34;4.13;;;2.90;;
84997;SDS011;75314;48.120;11.534;2024-03-17T01:46:59;3.87;;;3.10;;
84997;SDS011;75314;48.120;11.534;2024-03-17T01:49:24;3.03;;;2.73;;
84997;SDS011;75314;48.120;11.534;2024-03-17T01:51:51;3.70;;;2.83;;
84997;SDS011;75314;48.120;11.534;2024-03-17T01:54:16;3.13;;;2.60;;
84997;SDS011;75314;48.120;11.534;2024-03-17T01:56:41;3.20;;;2.90;;
84997;SDS011;75314;48.120;11.534;2024-03-17T01:59:07;3.00;;;2.67;;
84997;SDS011;75314;48.120;11.534;2024-03-17T02:01:33;3.97;;;2.97;;
84997;SDS011;75314;48.120;11.534;2024-03-17T02:03:58;4.53;;;3.03;;
84997;SDS011;75314;48.120;11.534;2024-03-17T02:06:24;3.30;;;2.97;;
84997;SDS011;75314;48.120;11.534;2024-03-17T02:08:50;3.40;;;3.00;;
84997;SDS011;75314;48.120;11.534;2024-03-17T02:13:55;3.20;;;2.80;;
84997;SDS011;75314;48.120;11.534;2024-03-17T02:16:21;4.47;;;2.67;;
84997;SDS011;75314;48.120;11.534;2024-03-17T02:18:47;3.63;;;3.03;;
84997;SDS011;75314;48.120;11.534;2024-03-17T02:21:12;4.37;;;3.10;;
84997;SDS011;75314;48.120;11.534;2024-03-17T02:23:38;3.20;;;2.90;;
84997;SDS011;75314;48.120;11.534;2024-03-17T02:26:04;3.10;;;2.80;;
84997;SDS011;75314;48.120;11.534;2024-03-17T02:28:29;3.10;;;2.80;;
84997;SDS011;75314;48.120;11.534;2024-03-17T02:30:54;3.10;;;2.70;;
84997;SDS011;75314;48.120;11.534;2024-03-17T02:33:19;3.50;;;3.17;;
84997;SDS011;75314;48.120;11.534;2024-03-17T02:35:44;5.13;;;2.93;;
84997;SDS011;75314;48.120;11.534;2024-03-17T02:38:10;3.00;;;2.70;;
84997;SDS011;75314;48.120;11.534;2024-03-17T02:40:35;3.77;;;2.73;;
84997;SDS011;75314;48.120;11.534;2024-03-17T02:43:00;2.70;;;2.50;;
84997;SDS011;75314;48.120;11.534;2024-03-17T02:45:25;4.00;;;2.80;;
84997;SDS011;75314;48.120;11.534;2024-03-17T02:47:50;3.60;;;2.93;;
84997;SDS011;75314;48.120;11.534;2024-03-17T02:50:16;3.10;;;2.70;;
84997;SDS011;75314;48.120;11.534;2024-03-17T02:52:41;3.13;;;2.70;;
84997;SDS011;75314;48.120;11.534;2024-03-17T02:55:06;4.30;;;2.90;;
84997;SDS011;75314;48.120;11.534;2024-03-17T02:57:31;3.30;;;2.80;;
84997;SDS011;75314;48.120;11.534;2024-03-17T02:59:57;3.00;;;2.70;;
84997;SDS011;75314;48.120;11.534;2024-03-17T03:02:22;3.37;;;2.77;;
84997;SDS011;75314;48.120;11.534;2024-03-17T03:04:47;3.37;;;3.00;;
84997;SDS011;75314;48.120;11.534;2024-03-17T03:07:13;4.73;;;2.80;;
84997;SDS011;75314;48.120;11.534;2024-03-17T03:09:38;4.20;;;2.80;;
84997;SDS011;75314;48.120;11.534;2024-03-17T03:12:04;4.10;;;3.23;;
84997;SDS011;75314;48.120;11.534;2024-03-17T03:14:29;3.00;;;2.70;;
84997;SDS011;75314;48.120;11.534;2024-03-17T03:16:55;3.73;;;3.10;;
84997;SDS011;75314;48.120;11.534;2024-03-17T03:19:20;4.67;;;3.00;;
84997;SDS011;75314;48.120;11.534;2024-03-17T03:21:46;4.03;;;3.07;;
84997;SDS011;75314;48.120;11.534;2024-03-17T03:24:14;4.47;;;2.83;;
84997;SDS011;75314;48.120;11.534;2024-03-17T03:26:39;4.07;;;3.50;;
84997;SDS011;75314;48.120;11.534;2024-03-17T03:29:05;3.77;;;3.33;;
84997;SDS011;75314;48.120;11.534;2024-03-17T03:31:31;3.20;;;2.90;;
84997;SDS011;75314;48.120;11.534;2024-03-17T03:33:57;5.53;;;3.20;;
84997;SDS011;75314;48.120;11.534;2024-03-17T03:36:22;3.40;;;3.10;;
84997;SDS011;75314;48.120;11.534;2024-03-17T03:38:47;3.67;;;3.10;;
84997;SDS011;75314;48.120;11.534;2024-03-17T03:41:15;4.83;;;3.43;;
84997;SDS011;75314;48.120;11.534;2024-03-17T03:43:41;3.67;;;3.20;;
84997;SDS011;75314;48.120;11.534;2024-03-17T03:46:09;4.90;;;3.20;;
84997;SDS011;75314;48.120;11.534;2024-03-17T03:48:34;3.50;;;3.20;;
84997;SDS011;75314;48.120;11.534;2024-03-17T03:51:07;3.97;;;3.57;;
84997;SDS011;75314;48.120;11.534;2024-03-17T03:53:33;5.17;;;3.27;;
84997;SDS011;75314;48.120;11.534;2024-03-17T03:55:58;3.63;;;2.93;;
84997;SDS011;75314;48.120;11.534;2024-03-17T03:58:24;3.57;;;3.07;;
84997;SDS011;75314;48.120;11.534;2024-03-17T04:00:49;3.87;;;3.00;;
84997;SDS011;75314;48.120;11.534;2024-03-17T04:03:14;3.87;;;3.30;;
84997;SDS011;75314;48.120;11.534;2024-03-17T04:05:39;3.27;;;2.97;;
84997;SDS011;75314;48.120;11.534;2024-03-17T04:08:04;3.30;;;3.00;;
84997;SDS011;75314;48.120;11.534;2024-03-17T04:10:30;4.00;;;2.93;;
84997;SDS011;75314;48.120;11.534;2024-03-17T04:12:55;3.87;;;3.13;;
84997;SDS011;75314;48.120;11.534;2024-03-17T04:15:20;3.37;;;3.07;;
84997;SDS011;75314;48.120;11.534;2024-03-17T04:17:45;3.90;;;3.33;;
84997;SDS011;75314;48.120;11.534;2024-03-17T04:20:11;3.40;;;2.90;;
84997;SDS011;75314;48.120;11.534;2024-03-17T04:22:36;3.60;;;3.30;;
84997;SDS011;75314;48.120;11.534;2024-03-17T04:25:01;4.27;;;3.03;;
84997;SDS011;75314;48.120;11.534;2024-03-17T04:27:27;3.83;;;3.23;;
84997;SDS011;75314;48.120;11.534;2024-03-17T04:29:52;5.53;;;3.10;;
84997;SDS011;75314;48.120;11.534;2024-03-17T04:32:18;5.00;;;3.33;;
84997;SDS011;75314;48.120;11.534;2024-03-17T04:34:44;4.20;;;3.33;;
84997;SDS011;75314;48.120;11.534;2024-03-17T04:37:09;4.03;;;3.40;;
84997;SDS011;75314;48.120;11.534;2024-03-17T04:39:35;3.67;;;2.97;;
84997;SDS011;75314;48.120;11.534;2024-03-17T04:42:00;4.27;;;3.60;;
84997;SDS011;75314;48.120;11.534;2024-03-17T04:44:25;3.93;;;3.40;;
84997;SDS011;75314;48.120;11.534;2024-03-17T04:46:50;3.33;;;3.03;;
84997;SDS011;75314;48.120;11.534;2024-03-17T04:49:15;3.67;;;2.77;;
84997;SDS011;75314;48.120;11.534;2024-03-17T04:51:41;3.33;;;2.90;;
84997;SDS011;75314;48.120;11.534;2024-03-17T04:54:06;3.30;;;2.80;;
84997;SDS011;75314;48.120;11.534;2024-03-17T04:56:31;5.97;;;2.80;;
84997;SDS011;75314;48.120;11.534;2024-03-17T04:58:56;3.93;;;3.20;;
84997;SDS011;75314;48.120;11.534;2024-03-17T05:01:21;4.53;;;2.70;;
84997;SDS011;75314;48.120;11.534;2024-03-17T05:03:47;3.63;;;3.10;;
84997;SDS011;75314;48.120;11.534;2024-03-17T05:06:12;3.60;;;2.87;;
84997;SDS011;75314;48.120;11.534;2024-03-17T05:08:37;3.80;;;3.10;;
84997;SDS011;75314;48.120;11.534;2024-03-17T05:11:03;3.33;;;3.03;;
84997;SDS011;75314;48.120;11.534;2024-03-17T05:13:29;4.27;;;3.30;;
84997;SDS011;75314;48.120;11.534;2024-03-17T05:15:54;4.93;;;3.23;;
84997;SDS011;75314;48.120;11.534;2024-03-17T05:18:19;3.20;;;2.80;;
84997;SDS011;75314;48.120;11.534;2024-03-17T05:20:45;4.83;;;3.73;;
84997;SDS011;75314;48.120;11.534;2024-03-17T05:23:10;3.67;;;3.20;;
84997;SDS011;75314;48.120;11.534;2024-03-17T05:25:35;5.17;;;3.07;;
84997;SDS011;75314;48.120;11.534;2024-03-17T05:28:00;3.93;;;3.27;;
84997;SDS011;75314;48.120;11.534;2024-03-17T05:30:26;4.13;;;3.60;;
84997;SDS011;75314;48.120;11.534;2024-03-17T05:32:51;3.83;;;3.33;;
84997;SDS011;75314;48.120;11.534;2024-03-17T05:35:16;4.73;;;3.50;;
84997;SDS011;75314;48.120;11.534;2024-03-17T05:37:41;5.23;;;3.70;;
84997;SDS011;75314;48.120;11.534;2024-03-17T05:40:06;3.90;;;3.37;;
84997;SDS011;75314;48.120;11.534;2024-03-17T05:42:32;4.30;;;3.50;;
84997;SDS011;75314;48.120;11.534;2024-03-17T05:44:58;4.13;;;3.50;;
84997;SDS011;75314;48.120;11.534;2024-03-17T05:47:23;3.67;;;3.37;;
84997;SDS011;75314;48.120;11.534;2024-03-17T05:49:48;4.60;;;3.40;;
84997;SDS011;75314;48.120;11.534;2024-03-17T05:52:13;4.13;;;3.57;;
84997;SDS011;75314;48.120;11.534;2024-03-17T05:54:38;4.13;;;3.60;;
84997;SDS011;75314;48.120;11.534;2024-03-17T05:57:04;4.13;;;3.57;;
84997;SDS011;75314;48.120;11.534;2024-03-17T05:59:29;3.93;;;3.53;;
84997;SDS011;75314;48.120;11.534;2024-03-17T06:01:55;4.53;;;3.67;;
84997;SDS011;75314;48.120;11.534;2024-03-17T06:04:20;4.10;;;3.70;;
84997;SDS011;75314;48.120;11.534;2024-03-17T06:06:45;4.80;;;3.93;;
84997;SDS011;75314;48.120;11.534;2024-03-17T06:09:10;4.30;;;3.43;;
84997;SDS011;75314;48.120;11.534;2024-03-17T06:11:35;4.20;;;3.80;;
84997;SDS011;75314;48.120;11.534;2024-03-17T06:14:00;4.53;;;3.83;;
84997;SDS011;75314;48.120;11.534;2024-03-17T06:16:26;4.80;;;3.50;;
84997;SDS011;75314;48.120;11.534;2024-03-17T06:18:51;3.50;;;3.20;;
84997;SDS011;75314;48.120;11.534;2024-03-17T06:21:16;4.50;;;3.07;;
84997;SDS011;75314;48.120;11.534;2024-03-17T06:23:41;4.60;;;3.67;;
84997;SDS011;75314;48.120;11.534;2024-03-17T06:26:06;3.50;;;3.17;;
84997;SDS011;75314;48.120;11.534;2024-03-17T06:28:37;4.07;;;3.67;;
84997;SDS011;75314;48.120;11.534;2024-03-17T06:31:02;5.43;;;3.67;;
84997;SDS011;75314;48.120;11.534;2024-03-17T06:33:27;6.13;;;3.47;;
84997;SDS011;75314;48.120;11.534;2024-03-17T06:35:53;3.70;;;3.33;;
84997;SDS011;75314;48.120;11.534;2024-03-17T06:38:18;4.10;;;3.53;;
84997;SDS011;75314;48.120;11.534;2024-03-17T06:40:52;4.43;;;3.23;;
84997;SDS011;75314;48.120;11.534;2024-03-17T06:43:17;3.23;;;2.93;;
84997;SDS011;75314;48.120;11.534;2024-03-17T06:45:43;4.30;;;3.40;;
84997;SDS011;75314;48.120;11.534;2024-03-17T06:48:09;3.67;;;3.27;;
84997;SDS011;75314;48.120;11.534;2024-03-17T06:50:34;4.10;;;3.63;;
84997;SDS011;75314;48.120;11.534;2024-03-17T06:52:59;3.80;;;3.40;;
84997;SDS011;75314;48.120;11.534;2024-03-17T06:55:24;4.90;;;3.40;;
84997;SDS011;75314;48.120;11.534;2024-03-17T06:57:49;3.57;;;3.10;;
84997;SDS011;75314;48.120;11.534;2024-03-17T07:00:15;3.70;;;3.37;;
84997;SDS011;75314;48.120;11.534;2024-03-17T07:02:40;4.03;;;3.33;;
84997;SDS011;75314;48.120;11.534;2024-03-17T07:05:06;4.03;;;3.30;;
84997;SDS011;75314;48.120;11.534;2024-03-17T07:07:32;3.67;;;3.37;;
84997;SDS011;75314;48.120;11.534;2024-03-17T07:09:57;3.90;;;3.50;;
84997;SDS011;75314;48.120;11.534;2024-03-17T07:12:22;4.93;;;4.10;;
84997;SDS011;75314;48.120;11.534;2024-03-17T07:14:49;4.10;;;3.40;;
84997;SDS011;75314;48.120;11.534;2024-03-17T07:17:15;4.37;;;3.77;;
84997;SDS011;75314;48.120;11.534;2024-03-17T07:19:40;3.63;;;3.33;;
84997;SDS011;75314;48.120;11.534;2024-03-17T07:22:05;4.37;;;3.53;;
84997;SDS011;75314;48.120;11.534;2024-03-17T07:24:31;3.90;;;3.30;;
84997;SDS011;75314;48.120;11.534;2024-03-17T07:26:56;3.37;;;3.00;;
84997;SDS011;75314;48.120;11.534;2024-03-17T07:29:21;3.97;;;3.53;;
84997;SDS011;75314;48.120;11.534;2024-03-17T07:31:46;4.03;;;3.43;;
84997;SDS011;75314;48.120;11.534;2024-03-17T07:34:11;5.33;;;3.30;;
84997;SDS011;75314;48.120;11.534;2024-03-17T07:36:37;3.57;;;3.27;;
84997;SDS011;75314;48.120;11.534;2024-03-17T07:39:02;3.80;;;3.00;;
84997;SDS011;75314;48.120;11.534;2024-03-17T07:41:27;3.30;;;3.00;;
84997;SDS011;75314;48.120;11.534;2024-03-17T07:43:52;3.90;;;3.50;;
84997;SDS011;75314;48.120;11.534;2024-03-17T07:46:18;4.90;;;3.23;;
84997;SDS011;75314;48.120;11.534;2024-03-17T07:48:43;4.00;;;3.17;;
84997;SDS011;75314;48.120;11.534;2024-03-17T07:53:39;3.00;;;2.70;;
84997;SDS011;75314;48.120;11.534;2024-03-17T07:56:06;2.60;;;2.40;;
84997;SDS011;75314;48.120;11.534;2024-03-17T07:58:33;3.93;;;2.20;;
84997;SDS011;75314;48.120;11.534;2024-03-17T08:00:59;2.67;;;2.30;;
84997;SDS011;75314;48.120;11.534;2024-03-17T08:03:25;2.47;;;2.10;;
84997;SDS011;75314;48.120;11.534;2024-03-17T08:05:54;3.00;;;2.37;;
84997;SDS011;75314;48.120;11.534;2024-03-17T08:08:19;2.93;;;2.30;;
84997;SDS011;75314;48.120;11.534;2024-03-17T08:10:45;2.93;;;2.20;;
84997;SDS011;75314;48.120;11.534;2024-03-17T08:13:10;4.23;;;3.20;;
84997;SDS011;75314;48.120;11.534;2024-03-17T08:15:36;3.60;;;3.00;;
84997;SDS011;75314;48.120;11.534;2024-03-17T08:18:01;4.67;;;3.00;;
84997;SDS011;75314;48.120;11.534;2024-03-17T08:20:26;2.93;;;2.60;;
84997;SDS011;75314;48.120;11.534;2024-03-17T08:22:51;3.50;;;2.47;;
84997;SDS011;75314;48.120;11.534;2024-03-17T08:25:17;3.37;;;2.60;;
84997;SDS011;75314;48.120;11.534;2024-03-17T08:27:42;3.07;;;2.60;;
84997;SDS011;75314;48.120;11.534;2024-03-17T08:30:08;4.63;;;3.00;;
84997;SDS011;75314;48.120;11.534;2024-03-17T08:32:34;3.13;;;2.80;;
84997;SDS011;75314;48.120;11.534;2024-03-17T08:34:59;3.10;;;2.80;;
84997;SDS011;75314;48.120;11.534;2024-03-17T08:37:24;4.23;;;2.97;;
84997;SDS011;75314;48.120;11.534;2024-03-17T08:39:49;4.30;;;2.60;;
84997;SDS011;75314;48.120;11.534;2024-03-17T08:42:14;3.30;;;2.40;;
84997;SDS011;75314;48.120;11.534;2024-03-17T08:44:40;5.10;;;2.50;;
84997;SDS011;75314;48.120;11.534;2024-03-17T08:47:05;4.80;;;2.80;;
84997;SDS011;75314;48.120;11.534;2024-03-17T08:49:30;5.37;;;2.80;;
84997;SDS011;75314;48.120;11.534;2024-03-17T08:51:55;3.53;;;2.50;;
84997;SDS011;75314;48.120;11.534;2024-03-17T08:54:20;4.33;;;2.17;;
84997;SDS011;75314;48.120;11.534;2024-03-17T08:56:46;2.50;;;2.27;;
84997;SDS011;75314;48.120;11.534;2024-03-17T08:59:11;2.60;;;2.30;;
84997;SDS011;75314;48.120;11.534;2024-03-17T09:01:36;3.77;;;2.30;;
84997;SDS011;75314;48.120;11.534;2024-03-17T09:04:01;3.30;;;2.07;;
84997;SDS011;75314;48.120;11.534;2024-03-17T09:06:26;3.27;;;2.17;;
84997;SDS011;75314;48.120;11.534;2024-03-17T09:08:51;3.27;;;2.20;;
84997;SDS011;75314;48.120;11.534;2024-03-17T09:11:17;3.00;;;2.40;;
84997;SDS011;75314;48.120;11.534;2024-03-17T09:13:42;2.70;;;2.30;;
84997;SDS011;75314;48.120;11.534;2024-03-17T09:16:07;4.90;;;2.37;;
84997;SDS011;75314;48.120;11.534;2024-03-17T09:18:33;2.93;;;2.50;;
84997;SDS011;75314;48.120;11.534;2024-03-17T09:23:28;2.93;;;2.30;;
84997;SDS011;75314;48.120;11.534;2024-03-17T09:26:01;2.73;;;2.10;;
84997;SDS011;75314;48.120;11.534;2024-03-17T09:28:27;2.20;;;1.97;;
84997;SDS011;75314;48.120;11.534;2024-03-17T09:30:53;3.50;;;2.10;;
84997;SDS011;75314;48.120;11.534;2024-03-17T09:33:19;2.20;;;2.00;;
84997;SDS011;75314;48.120;11.534;2024-03-17T09:35:52;4.90;;;2.07;;
84997;SDS011;75314;48.120;11.534;2024-03-17T09:38:20;2.40;;;2.20;;
84997;SDS011;75314;48.120;11.534;2024-03-17T09:40:46;2.80;;;2.30;;
84997;SDS011;75314;48.120;11.534;2024-03-17T09:43:11;3.47;;;2.50;;
84997;SDS011;75314;48.120;11.534;2024-03-17T09:45:36;3.23;;;2.30;;
84997;SDS011;75314;48.120;11.534;2024-03-17T09:48:02;3.63;;;2.90;;
84997;SDS011;75314;48.120;11.534;2024-03-17T09:50:27;2.83;;;2.30;;
84997;SDS011;75314;48.120;11.534;2024-03-17T09:52:53;3.00;;;2.20;;
84997;SDS011;75314;48.120;11.534;2024-03-17T09:55:18;2.63;;;1.97;;
84997;SDS011;75314;48.120;11.534;2024-03-17T09:57:43;3.33;;;2.00;;
84997;SDS011;75314;48.120;11.534;2024-03-17T10:00:10;1.80;;;1.70;;
84997;SDS011;75314;48.120;11.534;2024-03-17T10:02:36;4.07;;;3.13;;
84997;SDS011;75314;48.120;11.534;2024-03-17T10:05:14;3.43;;;2.43;;
84997;SDS011;75314;48.120;11.534;2024-03-17T10:07:43;4.70;;;2.40;;
84997;SDS011;75314;48.120;11.534;2024-03-17T10:10:11;2.60;;;1.93;;
84997;SDS011;75314;48.120;11.534;2024-03-17T10:12:37;3.60;;;2.17;;
84997;SDS011;75314;48.120;11.534;2024-03-17T10:15:02;2.80;;;1.80;;
84997;SDS011;75314;48.120;11.534;2024-03-17T10:17:31;3.77;;;1.83;;
84997;SDS011;75314;48.120;11.534;2024-03-17T10:20:13;1.87;;;1.53;;
84997;SDS011;75314;48.120;11.534;2024-03-17T10:22:39;3.87;;;1.50;;
84997;SDS011;75314;48.120;11.534;2024-03-17T10:25:05;2.47;;;1.40;;
84997;SDS011;75314;48.120;11.534;2024-03-17T10:27:33;2.70;;;1.50;;
84997;SDS011;75314;48.120;11.534;2024-03-17T10:29:59;2.70;;;1.60;;
84997;SDS011;75314;48.120;11.534;2024-03-17T10:32:24;2.87;;;1.60;;
84997;SDS011;75314;48.120;11.534;2024-03-17T10:34:49;1.73;;;1.40;;
84997;SDS011;75314;48.120;11.534;2024-03-17T10:37:16;3.03;;;1.80;;
84997;SDS011;75314;48.120;11.534;2024-03-17T10:39:42;2.27;;;1.90;;
84997;SDS011;75314;48.120;11.534;2024-03-17T10:42:09;3.43;;;2.37;;
84997;SDS011;75314;48.120;11.534;2024-03-17T10:44:35;2.73;;;1.60;;
84997;SDS011;75314;48.120;11.534;2024-03-17T10:47:02;3.27;;;1.43;;
84997;SDS011;75314;48.120;11.534;2024-03-17T10:49:28;7.43;;;4.80;;
84997;SDS011;75314;48.120;11.534;2024-03-17T10:51:56;6.77;;;4.60;;
84997;SDS011;75314;48.120;11.534;2024-03-17T10:54:24;5.13;;;2.73;;
84997;SDS011;75314;48.120;11.534;2024-03-17T10:56:49;3.23;;;2.00;;
84997;SDS011;75314;48.120;11.534;2024-03-17T10:59:15;3.43;;;1.60;;
84997;SDS011;75314;48.120;11.534;2024-03-17T11:01:40;3.33;;;1.40;;
84997;SDS011;75314;48.120;11.534;2024-03-17T11:04:07;3.60;;;1.47;;
84997;SDS011;75314;48.120;11.534;2024-03-17T11:06:33;2.83;;;1.33;;
84997;SDS011;75314;48.120;11.534;2024-03-17T11:08:59;1.83;;;1.30;;
84997;SDS011;75314;48.120;11.534;2024-03-17T11:11:36;2.93;;;1.60;;
84997;SDS011;75314;48.120;11.534;2024-03-17T11:14:17;3.40;;;1.50;;
84997;SDS011;75314;48.120;11.534;2024-03-17T11:16:43;1.80;;;1.30;;
84997;SDS011;75314;48.120;11.534;2024-03-17T11:19:12;2.23;;;1.33;;
84997;SDS011;75314;48.120;11.534;2024-03-17T11:21:40;2.87;;;1.60;;
84997;SDS011;75314;48.120;11.534;2024-03-17T11:24:05;2.53;;;1.50;;
84997;SDS011;75314;48.120;11.534;2024-03-17T11:26:31;4.30;;;1.40;;
84997;SDS011;75314;48.120;11.534;2024-03-17T11:28:57;3.43;;;1.57;;
84997;SDS011;75314;48.120;11.534;2024-03-17T11:34:04;3.60;;;2.20;;
84997;SDS011;75314;48.120;11.534;2024-03-17T11:36:32;3.90;;;3.17;;
84997;SDS011;75314;48.120;11.534;2024-03-17T11:41:34;3.20;;;1.73;;
84997;SDS011;75314;48.120;11.534;2024-03-17T11:44:12;3.40;;;1.93;;
84997;SDS011;75314;48.120;11.534;2024-03-17T11:49:22;1.73;;;1.27;;
84997;SDS011;75314;48.120;11.534;2024-03-17T11:51:48;2.53;;;1.43;;
84997;SDS011;75314;48.120;11.534;2024-03-17T11:54:22;2.37;;;1.10;;
84997;SDS011;75314;48.120;11.534;2024-03-17T11:56:48;3.37;;;1.50;;
84997;SDS011;75314;48.120;11.534;2024-03-17T11:59:15;3.23;;;1.30;;
84997;SDS011;75314;48.120;11.534;2024-03-17T12:01:41;4.23;;;1.20;;
84997;SDS011;75314;48.120;11.534;2024-03-17T12:04:07;2.57;;;1.30;;
84997;SDS011;75314;48.120;11.534;2024-03-17T12:06:32;2.97;;;1.20;;
84997;SDS011;75314;48.120;11.534;2024-03-17T12:09:17;1.47;;;1.20;;
84997;SDS011;75314;48.120;11.534;2024-03-17T12:11:44;3.00;;;1.50;;
84997;SDS011;75314;48.120;11.534;2024-03-17T12:14:12;4.00;;;1.50;;
84997;SDS011;75314;48.120;11.534;2024-03-17T12:16:46;2.33;;;1.30;;
84997;SDS011;75314;48.120;11.534;2024-03-17T12:19:11;4.30;;;1.37;;
84997;SDS011;75314;48.120;11.534;2024-03-17T12:21:37;3.20;;;1.60;;
84997;SDS011;75314;48.120;11.534;2024-03-17T12:24:02;11.03;;;7.63;;
84997;SDS011;75314;48.120;11.534;2024-03-17T12:26:57;9.50;;;7.67;;
84997;SDS011;75314;48.120;11.534;2024-03-17T12:29:29;5.00;;;3.57;;
84997;SDS011;75314;48.120;11.534;2024-03-17T12:31:59;2.67;;;1.63;;
84997;SDS011;75314;48.120;11.534;2024-03-17T12:34:26;2.33;;;1.40;;
84997;SDS011;75314;48.120;11.534;2024-03-17T12:36:55;2.90;;;1.50;;
84997;SDS011;75314;48.120;11.534;2024-03-17T12:39:21;2.20;;;1.40;;
84997;SDS011;75314;48.120;11.534;2024-03-17T12:42:06;4.40;;;1.77;;
84997;SDS011;75314;48.120;11.534;2024-03-17T12:44:38;3.47;;;1.70;;
84997;SDS011;75314;48.120;11.534;2024-03-17T12:47:17;4.07;;;1.53;;
84997;SDS011;75314;48.120;11.534;2024-03-17T12:49:47;2.37;;;1.47;;
84997;SDS011;75314;48.120;11.534;2024-03-17T12:52:19;3.40;;;1.50;;
84997;SDS011;75314;48.120;11.534;2024-03-17T12:55:04;2.17;;;1.50;;
84997;SDS011;75314;48.120;11.534;2024-03-17T12:57:33;3.97;;;1.60;;
84997;SDS011;75314;48.120;11.534;2024-03-17T12:59:58;8.43;;;6.73;;
84997;SDS011;75314;48.120;11.534;2024-03-17T13:02:23;6.33;;;4.53;;
84997;SDS011;75314;48.120;11.534;2024-03-17T13:05:04;6.23;;;5.30;;
84997;SDS011;75314;48.120;11.534;2024-03-17T13:07:40;3.83;;;2.30;;
84997;SDS011;75314;48.120;11.534;2024-03-17T13:10:05;4.50;;;2.10;;
84997;SDS011;75314;48.120;11.534;2024-03-17T13:12:31;3.23;;;1.50;;
84997;SDS011;75314;48.120;11.534;2024-03-17T13:14:56;4.10;;;1.47;;
84997;SDS011;75314;48.120;11.534;2024-03-17T13:17:21;3.10;;;1.80;;
84997;SDS011;75314;48.120;11.534;2024-03-17T13:19:46;3.67;;;1.30;;
84997;SDS011;75314;48.120;11.534;2024-03-17T13:22:11;4.40;;;2.50;;
84997;SDS011;75314;48.120;11.534;2024-03-17T13:24:37;8.27;;;4.93;;
84997;SDS011;75314;48.120;11.534;2024-03-17T13:27:02;7.53;;;4.37;;
84997;SDS011;75314;48.120;11.534;2024-03-17T13:29:27;3.67;;;2.00;;
84997;SDS011;75314;48.120;11.534;2024-03-17T13:31:52;3.33;;;1.53;;
84997;SDS011;75314;48.120;11.534;2024-03-17T13:34:18;4.03;;;1.57;;
84997;SDS011;75314;48.120;11.534;2024-03-17T13:36:43;3.00;;;1.20;;
84997;SDS011;75314;48.120;11.534;2024-03-17T13:39:08;2.87;;;1.70;;
84997;SDS011;75314;48.120;11.534;2024-03-17T13:41:33;2.40;;;1.60;;
84997;SDS011;75314;48.120;11.534;2024-03-17T13:43:58;2.60;;;1.40;;
84997;SDS011;75314;48.120;11.534;2024-03-17T13:46:24;3.60;;;1.70;;
84997;SDS011;75314;48.120;11.534;2024-03-17T13:48:49;9.17;;;6.20;;
84997;SDS011;75314;48.120;11.534;2024-03-17T13:51:14;4.87;;;2.70;;
84997;SDS011;75314;48.120;11.534;2024-03-17T13:53:39;3.17;;;1.87;;
84997;SDS011;75314;48.120;11.534;2024-03-17T13:56:04;2.97;;;1.40;;
84997;SDS011;75314;48.120;11.534;2024-03-17T13:58:30;4.33;;;1.50;;
84997;SDS011;75314;48.120;11.534;2024-03-17T14:00:55;3.70;;;1.40;;
84997;SDS011;75314;48.120;11.534;2024-03-17T14:03:20;1.83;;;1.50;;
84997;SDS011;75314;48.120;11.534;2024-03-17T14:05:45;3.10;;;1.70;;
84997;SDS011;75314;48.120;11.534;2024-03-17T14:08:11;4.77;;;1.90;;
84997;SDS011;75314;48.120;11.534;2024-03-17T14:10:36;4.27;;;1.90;;
84997;SDS011;75314;48.120;11.534;2024-03-17T14:13:01;4.93;;;1.70;;
84997;SDS011;75314;48.120;11.534;2024-03-17T14:15:26;2.93;;;1.73;;
84997;SDS011;75314;48.120;11.534;2024-03-17T14:17:52;3.60;;;1.80;;
84997;SDS011;75314;48.120;11.534;2024-03-17T14:20:17;5.77;;;2.73;;
84997;SDS011;75314;48.120;11.534;2024-03-17T14:22:42;4.77;;;3.00;;
84997;SDS011;75314;48.120;11.534;2024-03-17T14:25:09;4.20;;;2.30;;
84997;SDS011;75314;48.120;11.534;2024-03-17T14:27:38;3.27;;;1.80;;
84997;SDS011;75314;48.120;11.534;2024-03-17T14:30:03;2.57;;;1.60;;
84997;SDS011;75314;48.120;11.534;2024-03-17T14:32:29;3.70;;;1.43;;
84997;SDS011;75314;48.120;11.534;2024-03-17T14:34:55;3.30;;;1.63;;
84997;SDS011;75314;48.120;11.534;2024-03-17T14:37:20;5.00;;;1.63;;
84997;SDS011;75314;48.120;11.534;2024-03-17T14:39:45;3.67;;;1.70;;
84997;SDS011;75314;48.120;11.534;2024-03-17T14:42:11;2.70;;;1.43;;